KMNN/MNN METAR and TAF weather

Enter ICAO airport designator
Station Type Date Time Source
KMNN METAR 2019/08/25 12:53 UTC NOAA

KMNN 251253Z AUTO 11010KT 10SM CLR 16/12 A3019 RMK AO2 SLP223 T01610122


Station Type Date Time Source
KMNN Decoded METAR 2019/08/25 12:53 UTC NOAA

Station name not available
Aug 25, 2019 - 08:53 AM EDT / 2019.08.25 1253 UTC
Wind: from the ESE (110 degrees) at 12 MPH (10 KT):0
Visibility: 10 mile(s):0
Sky conditions: clear
Temperature: 61.0 F (16.1 C)
Dew Point: 54.0 F (12.2 C)
Relative Humidity: 77%
Pressure (altimeter): 30.19 in. Hg (1022 hPa)
ob: KMNN 251253Z AUTO 11010KT 10SM CLR 16/12 A3019 RMK AO2 SLP223 T01610122
cycle: 13

Station Type Date Time Source
KMNN TAF UTC NOAA

Error!

Example: see airport list